createdAt,value
2018-12-13T00:00:08.783Z,15.90
2018-12-13T00:01:08.762Z,14.80
2018-12-13T00:02:08.738Z,16.00
2018-12-13T00:03:08.735Z,16.40
2018-12-13T00:04:08.711Z,17.40
2018-12-13T00:05:08.738Z,17.60
2018-12-13T00:06:08.694Z,16.60
2018-12-13T00:07:08.686Z,20.00
2018-12-13T00:08:08.686Z,19.80
2018-12-13T00:09:08.665Z,19.20
2018-12-13T00:10:08.680Z,19.40
2018-12-13T00:11:08.647Z,19.60
2018-12-13T00:12:08.624Z,19.40
2018-12-13T00:13:08.619Z,19.90
2018-12-13T00:14:08.614Z,19.70
2018-12-13T00:16:17.828Z,14.40
2018-12-13T00:17:18.807Z,16.90
2018-12-13T00:18:18.785Z,16.30
2018-12-13T00:19:18.776Z,15.80
2018-12-13T00:20:18.765Z,14.80
2018-12-13T00:21:18.784Z,14.50
2018-12-13T00:22:18.756Z,14.10
2018-12-13T00:23:18.741Z,13.20
2018-12-13T00:24:18.733Z,14.10
2018-12-13T00:25:18.718Z,15.20
2018-12-13T00:26:18.736Z,15.40
2018-12-13T00:27:18.704Z,15.00
2018-12-13T00:28:18.684Z,14.90
2018-12-13T00:29:18.671Z,14.30
2018-12-13T00:30:18.659Z,15.50
2018-12-13T00:31:18.672Z,16.50
2018-12-13T00:32:18.636Z,16.70
2018-12-13T00:33:18.626Z,17.00
2018-12-13T00:34:18.619Z,16.40
2018-12-13T00:35:18.602Z,16.50
2018-12-13T00:36:18.617Z,15.90
2018-12-13T00:37:18.597Z,17.20
2018-12-13T00:38:18.571Z,16.50
2018-12-13T00:39:18.565Z,16.60
2018-12-13T00:40:18.555Z,17.00
2018-12-13T00:41:18.568Z,16.90
2018-12-13T00:42:18.535Z,16.70
2018-12-13T00:43:18.524Z,17.30
2018-12-13T00:44:18.507Z,17.60
2018-12-13T00:45:18.494Z,16.60
2018-12-13T00:46:18.522Z,16.20
2018-12-13T00:47:18.479Z,17.40
2018-12-13T00:48:18.475Z,16.80
2018-12-13T00:49:18.463Z,15.60
2018-12-13T00:50:18.444Z,16.00
2018-12-13T00:51:18.456Z,17.10
2018-12-13T00:52:18.429Z,16.50
2018-12-13T00:53:18.416Z,16.70
2018-12-13T00:54:18.414Z,17.10
2018-12-13T00:55:18.389Z,16.30
2018-12-13T00:56:18.421Z,15.10
2018-12-13T00:57:18.387Z,15.10
2018-12-13T00:58:18.363Z,15.70
2018-12-13T00:59:18.352Z,15.50
2018-12-13T01:00:18.380Z,15.50
2018-12-13T01:01:18.350Z,15.00
2018-12-13T01:02:18.320Z,14.80
2018-12-13T01:03:18.300Z,14.30
2018-12-13T01:04:18.300Z,14.30
2018-12-13T01:05:18.287Z,15.00
2018-12-13T01:06:18.315Z,14.40
2018-12-13T01:07:18.262Z,14.30
2018-12-13T01:08:18.247Z,14.10
2018-12-13T01:09:18.244Z,14.10
2018-12-13T01:10:18.232Z,14.30
2018-12-13T01:11:18.223Z,14.40
2018-12-13T01:12:18.230Z,14.10
2018-12-13T01:13:18.195Z,14.40
2018-12-13T01:14:18.191Z,14.50
2018-12-13T01:15:18.176Z,15.00
2018-12-13T01:16:18.162Z,15.40
2018-12-13T01:17:18.173Z,14.60
2018-12-13T01:18:18.143Z,14.90
2018-12-13T01:19:18.137Z,14.90
2018-12-13T01:20:18.114Z,14.50
2018-12-13T01:21:20.830Z,14.40
2018-12-13T01:22:18.126Z,13.10
2018-12-13T01:23:18.093Z,14.30
2018-12-13T01:24:18.070Z,13.60
2018-12-13T01:25:18.074Z,14.00
2018-12-13T01:26:18.053Z,14.10
2018-12-13T01:27:18.073Z,14.30
2018-12-13T01:28:18.042Z,13.40
2018-12-13T01:29:18.025Z,14.30
2018-12-13T01:30:18.004Z,14.10
2018-12-13T01:31:18.004Z,14.80
2018-12-13T01:32:17.994Z,14.40
2018-12-13T01:33:17.993Z,14.90
2018-12-13T01:34:17.965Z,14.90
2018-12-13T01:35:17.962Z,15.80
2018-12-13T01:36:17.958Z,15.00
2018-12-13T01:37:17.928Z,15.60
2018-12-13T01:38:17.948Z,15.80
2018-12-13T01:39:17.918Z,16.50
2018-12-13T01:40:17.897Z,16.20
2018-12-13T01:41:17.894Z,15.90
2018-12-13T01:42:17.878Z,17.00
2018-12-13T01:43:17.893Z,16.30
2018-12-13T01:44:17.856Z,16.00
2018-12-13T01:45:17.861Z,16.90
2018-12-13T01:46:17.841Z,16.20
2018-12-13T01:47:17.845Z,16.80
2018-12-13T01:48:17.841Z,17.90
2018-12-13T01:49:17.819Z,17.70
2018-12-13T01:50:17.787Z,17.90
2018-12-13T01:51:17.779Z,17.50
2018-12-13T01:52:17.778Z,18.20
2018-12-13T01:53:17.776Z,19.10
2018-12-13T01:54:17.754Z,18.40
2018-12-13T01:55:17.753Z,19.20
2018-12-13T01:56:17.736Z,18.30
2018-12-13T01:57:17.716Z,18.30
2018-12-13T01:58:17.737Z,18.50
2018-12-13T01:59:17.705Z,17.70
2018-12-13T02:00:17.683Z,17.60
2018-12-13T02:01:17.677Z,16.20
2018-12-13T02:02:17.670Z,17.30
2018-12-13T02:03:17.674Z,15.40
2018-12-13T02:04:17.642Z,16.50
2018-12-13T02:05:17.630Z,15.70
2018-12-13T02:06:17.633Z,15.40
2018-12-13T02:07:17.609Z,15.30
2018-12-13T02:08:17.622Z,15.30
2018-12-13T02:09:17.587Z,15.80
2018-12-13T02:10:17.576Z,14.80
2018-12-13T02:11:17.570Z,14.70
2018-12-13T02:12:17.561Z,14.70
2018-12-13T02:13:17.568Z,14.40
2018-12-13T02:14:17.551Z,14.10
2018-12-13T02:15:17.529Z,13.50
2018-12-13T02:17:26.710Z,11.60
2018-12-13T02:18:27.710Z,12.70
2018-12-13T02:19:27.683Z,12.60
2018-12-13T02:20:27.667Z,12.40
2018-12-13T02:21:27.666Z,12.00
2018-12-13T02:22:27.655Z,12.30
2018-12-13T02:23:27.651Z,12.20
2018-12-13T02:24:27.632Z,12.00
2018-12-13T02:25:27.606Z,11.30
2018-12-13T02:26:27.611Z,11.20
2018-12-13T02:27:27.595Z,11.50
2018-12-13T02:28:27.605Z,11.20
2018-12-13T02:29:27.578Z,11.70
2018-12-13T02:30:27.561Z,10.80
2018-12-13T02:31:27.552Z,10.60
2018-12-13T02:32:27.547Z,11.00
2018-12-13T02:33:27.559Z,10.60
2018-12-13T02:34:27.519Z,10.80
2018-12-13T02:35:27.503Z,10.90
2018-12-13T02:36:27.502Z,11.00
2018-12-13T02:37:27.496Z,10.80
2018-12-13T02:38:27.507Z,10.50
2018-12-13T02:39:27.477Z,11.10
2018-12-13T02:40:27.446Z,11.20
2018-12-13T02:41:27.442Z,11.20
2018-12-13T02:42:27.441Z,11.30
2018-12-13T02:43:27.432Z,11.30
2018-12-13T02:44:27.411Z,11.10
2018-12-13T02:45:27.390Z,11.40
2018-12-13T02:46:27.382Z,11.40
2018-12-13T02:47:27.407Z,10.70
2018-12-13T02:48:27.387Z,10.90
2018-12-13T02:49:27.351Z,11.00
2018-12-13T02:50:27.351Z,10.90
2018-12-13T02:51:27.338Z,9.90
2018-12-13T02:52:27.327Z,10.70
2018-12-13T02:53:27.342Z,10.10
2018-12-13T02:54:27.321Z,10.40
2018-12-13T02:55:27.290Z,10.40
2018-12-13T02:56:27.293Z,10.70
2018-12-13T02:57:27.280Z,11.00
2018-12-13T02:58:27.282Z,11.00
2018-12-13T02:59:27.258Z,10.90
2018-12-13T03:00:27.236Z,11.30
2018-12-13T03:01:27.226Z,11.30
2018-12-13T03:02:27.219Z,11.10
2018-12-13T03:03:27.233Z,11.30
2018-12-13T03:04:27.218Z,11.20
2018-12-13T03:05:27.229Z,10.30
2018-12-13T03:06:27.166Z,10.80
2018-12-13T03:07:27.155Z,11.10
2018-12-13T03:08:27.165Z,10.50
2018-12-13T03:09:27.158Z,11.00
2018-12-13T03:10:27.117Z,10.60
2018-12-13T03:11:27.117Z,11.10
2018-12-13T03:12:27.102Z,10.80
2018-12-13T03:13:27.121Z,10.30
2018-12-13T03:14:27.073Z,11.10
2018-12-13T03:15:27.069Z,11.50
2018-12-13T03:16:27.072Z,11.30
2018-12-13T03:17:27.041Z,10.60
2018-12-13T03:18:27.059Z,11.00
2018-12-13T03:19:27.039Z,11.30
2018-12-13T03:20:27.009Z,10.50
2018-12-13T03:21:27.003Z,11.60
2018-12-13T03:22:26.989Z,11.70
2018-12-13T03:23:26.975Z,11.20
2018-12-13T03:24:26.997Z,12.20
2018-12-13T03:25:26.956Z,11.80
2018-12-13T03:26:26.942Z,11.60
2018-12-13T03:27:26.929Z,11.10
2018-12-13T03:28:26.931Z,11.30
2018-12-13T03:29:26.944Z,11.40
2018-12-13T03:30:26.921Z,11.50
2018-12-13T03:31:26.885Z,11.50
2018-12-13T03:32:26.928Z,12.40
2018-12-13T03:33:26.885Z,11.50
2018-12-13T03:34:26.887Z,12.90
2018-12-13T03:35:26.854Z,11.90
2018-12-13T03:36:26.850Z,12.30
2018-12-13T03:37:26.831Z,12.30
2018-12-13T03:38:26.819Z,12.10
2018-12-13T03:39:26.825Z,12.50
2018-12-13T03:40:26.798Z,13.30
2018-12-13T03:41:26.785Z,13.40
2018-12-13T03:42:26.761Z,12.50
2018-12-13T03:43:26.759Z,13.40
2018-12-13T03:44:26.769Z,13.30
2018-12-13T03:45:26.731Z,13.40
2018-12-13T03:46:26.728Z,12.60
2018-12-13T03:47:26.705Z,14.00
2018-12-13T03:48:26.706Z,13.80
2018-12-13T03:49:26.712Z,14.30
2018-12-13T03:50:26.690Z,13.80
2018-12-13T03:51:26.669Z,14.80
2018-12-13T03:52:26.652Z,14.10
2018-12-13T03:53:26.651Z,14.20
2018-12-13T03:54:26.651Z,14.20
2018-12-13T03:55:26.626Z,14.10
2018-12-13T03:56:26.607Z,14.10
2018-12-13T03:57:26.592Z,14.80
2018-12-13T03:58:26.590Z,15.10
2018-12-13T03:59:26.607Z,14.10
2018-12-13T04:00:26.568Z,14.40
2018-12-13T04:01:26.556Z,14.90
2018-12-13T04:02:26.545Z,14.20
2018-12-13T04:03:26.539Z,13.90
2018-12-13T04:04:26.543Z,14.50
2018-12-13T04:05:26.520Z,14.70
2018-12-13T04:06:26.505Z,14.20
2018-12-13T04:07:27.821Z,14.80
2018-12-13T04:08:26.468Z,14.70
2018-12-13T04:09:26.482Z,14.70
2018-12-13T04:10:26.444Z,14.50
2018-12-13T04:11:26.445Z,15.10
2018-12-13T04:12:26.431Z,14.70
2018-12-13T04:13:26.416Z,14.40
2018-12-13T04:14:26.450Z,14.70
2018-12-13T04:15:26.399Z,14.70
2018-12-13T04:16:26.500Z,14.70
2018-12-13T04:18:35.562Z,15.40
2018-12-13T04:19:36.577Z,14.90
2018-12-13T04:20:36.527Z,14.80
2018-12-13T04:21:36.525Z,15.30
2018-12-13T04:22:36.511Z,15.80
2018-12-13T04:23:36.508Z,16.00
2018-12-13T04:24:36.514Z,16.10
2018-12-13T04:25:36.482Z,15.90
2018-12-13T04:26:36.477Z,16.00
2018-12-13T04:27:36.470Z,15.80
2018-12-13T04:28:36.460Z,16.00
2018-12-13T04:29:36.456Z,16.20
2018-12-13T04:30:36.437Z,15.70
2018-12-13T04:31:36.418Z,16.30
2018-12-13T04:32:36.403Z,15.80
2018-12-13T04:33:36.391Z,16.10
2018-12-13T04:34:36.439Z,16.20
2018-12-13T04:35:36.369Z,16.50
2018-12-13T04:36:36.379Z,16.40
2018-12-13T04:37:36.346Z,16.70
2018-12-13T04:38:36.336Z,17.10
2018-12-13T04:39:36.350Z,16.60
2018-12-13T04:40:36.313Z,16.00
2018-12-13T04:41:36.298Z,16.90
2018-12-13T04:42:36.284Z,16.60
2018-12-13T04:43:36.283Z,16.60
2018-12-13T04:44:37.838Z,17.00
2018-12-13T04:45:36.255Z,17.90
2018-12-13T04:46:36.239Z,16.50
2018-12-13T04:47:36.242Z,17.40
2018-12-13T04:48:36.217Z,17.60
2018-12-13T04:49:36.232Z,17.70
2018-12-13T04:50:36.274Z,17.50
2018-12-13T04:51:36.213Z,17.70
2018-12-13T04:52:36.174Z,17.70
2018-12-13T04:53:36.234Z,17.90
2018-12-13T04:54:36.169Z,17.50
2018-12-13T04:55:36.145Z,19.10
2018-12-13T04:56:36.133Z,18.20
2018-12-13T04:57:36.119Z,19.10
2018-12-13T04:58:36.119Z,18.00
2018-12-13T04:59:36.120Z,18.40
2018-12-13T05:00:36.093Z,18.10
2018-12-13T05:01:36.067Z,18.90
2018-12-13T05:02:36.055Z,18.90
2018-12-13T05:03:36.047Z,17.60
2018-12-13T05:04:36.069Z,19.10
2018-12-13T05:05:36.028Z,18.30
2018-12-13T05:06:36.011Z,17.70
2018-12-13T05:07:41.499Z,18.50
2018-12-13T05:08:35.991Z,18.40
2018-12-13T05:09:35.985Z,18.80
2018-12-13T05:10:35.988Z,17.80
2018-12-13T05:11:35.978Z,18.80
2018-12-13T05:12:35.945Z,19.50
2018-12-13T05:13:35.931Z,19.40
2018-12-13T05:14:35.923Z,18.80
2018-12-13T05:15:35.949Z,18.40
2018-12-13T05:16:35.932Z,18.50
2018-12-13T05:17:35.900Z,19.60
2018-12-13T05:18:35.884Z,18.90
2018-12-13T05:19:35.878Z,19.30
2018-12-13T05:20:35.893Z,19.30
2018-12-13T05:21:35.859Z,18.90
2018-12-13T05:22:35.853Z,19.50
2018-12-13T05:23:35.836Z,19.00
2018-12-13T05:24:35.820Z,18.90
2018-12-13T05:25:35.841Z,19.10
2018-12-13T05:26:35.807Z,17.80
2018-12-13T05:27:35.784Z,19.70
2018-12-13T05:28:35.782Z,19.60
2018-12-13T05:29:35.760Z,19.60
2018-12-13T05:30:35.781Z,18.90
2018-12-13T05:31:35.741Z,19.70
2018-12-13T05:32:35.725Z,20.00
2018-12-13T05:33:35.714Z,19.20
2018-12-13T05:34:35.697Z,19.50
2018-12-13T05:35:35.705Z,19.40
2018-12-13T05:36:35.722Z,19.30
2018-12-13T05:37:35.676Z,19.90
2018-12-13T05:38:35.661Z,19.10
2018-12-13T05:39:35.651Z,19.20
2018-12-13T05:40:35.639Z,19.20
2018-12-13T05:41:35.645Z,19.50
2018-12-13T05:42:35.613Z,18.90
2018-12-13T05:43:35.608Z,19.30
2018-12-13T05:44:35.595Z,19.70
2018-12-13T05:45:35.583Z,20.20
2018-12-13T05:46:35.597Z,19.80
2018-12-13T05:47:35.556Z,20.20
2018-12-13T05:48:35.549Z,19.70
2018-12-13T05:49:35.544Z,20.00
2018-12-13T05:50:35.519Z,19.50
2018-12-13T05:51:35.543Z,20.10
2018-12-13T05:52:35.511Z,19.60
2018-12-13T05:53:35.492Z,20.10
2018-12-13T05:54:35.481Z,19.10
2018-12-13T05:55:35.477Z,19.40
2018-12-13T05:56:35.492Z,19.30
2018-12-13T05:57:35.449Z,20.00
2018-12-13T05:58:35.442Z,20.20
2018-12-13T05:59:35.432Z,19.90
2018-12-13T06:00:35.411Z,19.50
2018-12-13T06:01:35.434Z,19.90
2018-12-13T06:02:35.394Z,20.10
2018-12-13T06:03:35.384Z,20.40
2018-12-13T06:04:35.366Z,20.50
2018-12-13T06:05:35.373Z,20.30
2018-12-13T06:06:35.366Z,22.00
2018-12-13T06:07:35.344Z,20.70
2018-12-13T06:08:35.327Z,20.80
2018-12-13T06:09:35.311Z,22.30
2018-12-13T06:10:35.300Z,21.30
2018-12-13T06:11:35.316Z,21.00
2018-12-13T06:12:35.273Z,22.20
2018-12-13T06:13:35.271Z,23.80
2018-12-13T06:14:35.262Z,22.20
2018-12-13T06:15:35.255Z,23.80
2018-12-13T06:16:35.246Z,23.60
2018-12-13T06:17:35.219Z,24.70
2018-12-13T06:19:44.420Z,22.50
2018-12-13T06:20:45.397Z,23.80
2018-12-13T06:21:45.482Z,24.00
2018-12-13T06:22:45.374Z,24.30
2018-12-13T06:23:45.369Z,24.20
2018-12-13T06:24:45.356Z,25.00
2018-12-13T06:25:45.351Z,25.60
2018-12-13T06:26:45.347Z,24.70
2018-12-13T06:27:45.324Z,25.20
2018-12-13T06:28:45.313Z,26.10
2018-12-13T06:29:48.820Z,28.00
2018-12-13T06:30:45.281Z,27.40
2018-12-13T06:31:45.303Z,26.20
2018-12-13T06:32:45.277Z,25.10
2018-12-13T06:33:45.269Z,24.90
2018-12-13T06:34:45.251Z,26.30
2018-12-13T06:35:45.238Z,26.20
2018-12-13T06:36:45.245Z,26.50
2018-12-13T06:37:45.225Z,26.10
2018-12-13T06:38:45.202Z,25.50
2018-12-13T06:39:45.187Z,24.50
2018-12-13T06:40:45.177Z,24.10
2018-12-13T06:41:45.194Z,23.40
2018-12-13T06:42:45.154Z,23.80
2018-12-13T06:43:45.160Z,23.60
2018-12-13T06:44:45.136Z,23.00
2018-12-13T06:45:45.165Z,23.80
2018-12-13T06:46:45.144Z,24.10
2018-12-13T06:47:45.114Z,23.60
2018-12-13T06:48:45.171Z,24.50
2018-12-13T06:49:45.768Z,25.40
2018-12-13T06:50:45.069Z,24.80
2018-12-13T06:51:45.091Z,25.90
2018-12-13T06:52:45.142Z,24.70
2018-12-13T06:53:45.063Z,24.60
2018-12-13T06:54:45.019Z,23.20
2018-12-13T06:55:45.080Z,24.10
2018-12-13T06:56:45.005Z,25.40
2018-12-13T06:57:44.991Z,25.40
2018-12-13T06:58:44.980Z,24.80
2018-12-13T06:59:44.965Z,24.50
2018-12-13T07:00:44.965Z,24.30
2018-12-13T07:01:44.992Z,23.80
2018-12-13T07:02:45.229Z,22.60
2018-12-13T07:03:44.934Z,22.70
2018-12-13T07:04:44.917Z,23.50
2018-12-13T07:05:44.896Z,22.10
2018-12-13T07:06:44.904Z,22.30
2018-12-13T07:07:44.878Z,22.80
2018-12-13T07:08:45.122Z,22.90
2018-12-13T07:09:44.890Z,21.70
2018-12-13T07:10:44.855Z,22.60
2018-12-13T07:11:44.838Z,22.40
2018-12-13T07:12:44.825Z,22.20
2018-12-13T07:13:44.840Z,21.70
2018-12-13T07:14:44.801Z,21.20
2018-12-13T07:15:44.787Z,22.00
2018-12-13T07:16:44.808Z,20.90
2018-12-13T07:17:44.770Z,22.40
2018-12-13T07:18:44.787Z,22.50
2018-12-13T07:19:44.757Z,21.10
2018-12-13T07:20:44.741Z,23.40
2018-12-13T07:21:44.735Z,24.20
2018-12-13T07:22:44.722Z,24.00
2018-12-13T07:23:44.730Z,23.50
2018-12-13T07:24:44.713Z,23.70
2018-12-13T07:25:44.690Z,23.90
2018-12-13T07:26:44.687Z,24.00
2018-12-13T07:27:44.672Z,23.80
2018-12-13T07:28:44.685Z,24.60
2018-12-13T07:29:44.723Z,23.80
2018-12-13T07:30:44.633Z,23.90
2018-12-13T07:31:44.616Z,22.90
2018-12-13T07:32:44.610Z,21.70
2018-12-13T07:33:44.623Z,21.90
2018-12-13T07:34:44.592Z,20.90
2018-12-13T07:35:44.575Z,22.00
2018-12-13T07:36:44.567Z,21.90
2018-12-13T07:37:44.560Z,21.20
2018-12-13T07:38:44.597Z,21.60
2018-12-13T07:39:44.538Z,21.40
2018-12-13T07:40:44.524Z,21.10
2018-12-13T07:41:44.525Z,22.00
2018-12-13T07:42:44.503Z,23.60
2018-12-13T07:43:44.555Z,21.60
2018-12-13T07:44:44.489Z,21.60
2018-12-13T07:45:44.483Z,21.40
2018-12-13T07:46:44.463Z,23.10
2018-12-13T07:47:44.445Z,23.60
2018-12-13T07:48:44.456Z,21.00
2018-12-13T07:49:44.431Z,22.40
2018-12-13T07:50:44.584Z,24.70
2018-12-13T07:51:44.421Z,24.40
2018-12-13T07:52:44.390Z,23.90
2018-12-13T07:53:44.421Z,23.60
2018-12-13T07:54:44.380Z,24.00
2018-12-13T07:55:44.371Z,24.80
2018-12-13T07:56:44.361Z,25.20
2018-12-13T07:57:44.360Z,24.60
2018-12-13T07:58:45.206Z,25.20
2018-12-13T07:59:44.649Z,24.10
2018-12-13T08:00:44.370Z,25.00
2018-12-13T08:01:44.315Z,23.50
2018-12-13T08:02:44.294Z,23.80
2018-12-13T08:03:44.276Z,24.80
2018-12-13T08:04:44.300Z,24.30
2018-12-13T08:05:44.278Z,26.50
2018-12-13T08:06:44.238Z,27.60
2018-12-13T08:07:44.240Z,27.20
2018-12-13T08:08:44.227Z,26.40
2018-12-13T08:09:44.246Z,23.20
2018-12-13T08:10:44.261Z,23.70
2018-12-13T08:11:44.210Z,23.30
2018-12-13T08:12:44.316Z,22.70
2018-12-13T08:13:45.370Z,22.20
2018-12-13T08:14:44.174Z,22.90
2018-12-13T08:15:44.152Z,22.80
2018-12-13T08:16:44.196Z,21.20
2018-12-13T08:17:44.128Z,22.30
2018-12-13T08:18:44.128Z,21.80
2018-12-13T08:20:53.426Z,19.50
2018-12-13T08:21:54.310Z,21.30
2018-12-13T08:22:54.295Z,21.90
2018-12-13T08:23:54.295Z,20.70
2018-12-13T08:24:54.286Z,21.90
2018-12-13T08:25:54.284Z,21.70
2018-12-13T08:26:54.261Z,22.60
2018-12-13T08:27:54.237Z,22.90
2018-12-13T08:28:54.231Z,22.70
2018-12-13T08:29:54.231Z,22.30
2018-12-13T08:30:54.242Z,22.90
2018-12-13T08:31:54.211Z,21.50
2018-12-13T08:32:54.208Z,21.80
2018-12-13T08:33:54.181Z,22.90
2018-12-13T08:34:54.176Z,23.00
2018-12-13T08:35:54.201Z,23.10
2018-12-13T08:36:54.161Z,21.90
2018-12-13T08:37:54.144Z,22.20
2018-12-13T08:38:54.120Z,23.60
2018-12-13T08:39:54.125Z,23.20
2018-12-13T08:40:54.141Z,22.30
2018-12-13T08:41:54.103Z,22.50
2018-12-13T08:42:54.080Z,23.10
2018-12-13T08:43:54.084Z,23.80
2018-12-13T08:44:54.061Z,23.60
2018-12-13T08:45:54.078Z,22.90
2018-12-13T08:46:54.043Z,23.30
2018-12-13T08:47:54.070Z,22.60
2018-12-13T08:48:54.031Z,23.90
2018-12-13T08:49:54.005Z,23.30
2018-12-13T08:50:54.347Z,23.70
2018-12-13T08:51:54.000Z,24.00
2018-12-13T08:52:53.999Z,22.40
2018-12-13T08:53:53.977Z,22.70
2018-12-13T08:54:53.955Z,23.40
2018-12-13T08:55:54.613Z,23.70
2018-12-13T08:56:53.943Z,22.50
2018-12-13T08:57:53.946Z,24.10
2018-12-13T08:58:53.931Z,23.20
2018-12-13T08:59:53.979Z,24.20
2018-12-13T09:00:53.895Z,22.60
2018-12-13T09:01:53.900Z,23.90
2018-12-13T09:02:53.889Z,22.10
2018-12-13T09:03:53.957Z,23.00
2018-12-13T09:04:53.956Z,23.00
2018-12-13T09:05:53.850Z,22.90
2018-12-13T09:06:53.860Z,24.20
2018-12-13T09:07:53.851Z,24.70
2018-12-13T09:08:53.831Z,24.30
2018-12-13T09:09:53.793Z,23.70
2018-12-13T09:10:53.787Z,23.70
2018-12-13T09:11:53.809Z,24.50
2018-12-13T09:12:54.748Z,26.10
2018-12-13T09:13:53.756Z,24.30
2018-12-13T09:14:53.770Z,25.10
2018-12-13T09:15:53.730Z,24.80
2018-12-13T09:16:53.740Z,25.20
2018-12-13T09:17:53.710Z,26.00
2018-12-13T09:18:53.697Z,25.80
2018-12-13T09:19:54.554Z,25.80
2018-12-13T09:20:53.849Z,25.10
2018-12-13T09:21:53.858Z,25.80
2018-12-13T09:22:53.662Z,25.90
2018-12-13T09:23:53.658Z,24.30
2018-12-13T09:24:53.631Z,25.90
2018-12-13T09:25:53.619Z,26.60
2018-12-13T09:26:53.643Z,25.70
2018-12-13T09:27:54.111Z,26.60
2018-12-13T09:28:53.660Z,25.90
2018-12-13T09:29:54.692Z,26.30
2018-12-13T09:30:53.615Z,25.90
2018-12-13T09:31:53.595Z,25.40
2018-12-13T09:32:53.553Z,24.60
2018-12-13T09:33:53.565Z,24.70
2018-12-13T09:34:53.629Z,25.20
2018-12-13T09:35:53.578Z,25.30
2018-12-13T09:36:53.713Z,25.50
2018-12-13T09:37:56.107Z,25.20
2018-12-13T09:38:53.480Z,25.20
2018-12-13T09:39:53.483Z,26.30
2018-12-13T09:40:53.557Z,25.70
2018-12-13T09:41:53.590Z,25.50
2018-12-13T09:42:53.439Z,26.00
2018-12-13T09:43:53.442Z,27.00
2018-12-13T09:44:53.457Z,26.80
2018-12-13T09:45:53.513Z,24.80
2018-12-13T09:46:53.427Z,25.80
2018-12-13T09:47:53.391Z,26.70
2018-12-13T09:48:53.431Z,26.50
2018-12-13T09:49:53.488Z,26.30
2018-12-13T09:50:53.354Z,28.20
2018-12-13T09:51:53.374Z,27.80
2018-12-13T09:52:53.341Z,29.70
2018-12-13T09:53:53.343Z,30.00
2018-12-13T09:54:53.313Z,28.20
2018-12-13T09:55:53.299Z,30.40
2018-12-13T09:56:53.325Z,28.90
2018-12-13T09:57:53.287Z,29.00
2018-12-13T09:58:53.267Z,28.10
2018-12-13T09:59:53.257Z,28.00
2018-12-13T10:00:53.272Z,26.60
2018-12-13T10:01:53.267Z,26.60
2018-12-13T10:02:53.236Z,24.50
2018-12-13T10:03:53.232Z,25.60
2018-12-13T10:04:53.216Z,25.80
2018-12-13T10:05:53.201Z,29.10
2018-12-13T10:06:53.216Z,28.20
2018-12-13T10:07:53.196Z,27.00
2018-12-13T10:08:53.164Z,26.60
2018-12-13T10:09:53.151Z,26.80
2018-12-13T10:10:53.139Z,28.00
2018-12-13T10:11:53.161Z,26.30
2018-12-13T10:12:53.672Z,28.40
2018-12-13T10:13:53.136Z,27.90
2018-12-13T10:14:53.105Z,27.70
2018-12-13T10:15:53.088Z,26.30
2018-12-13T10:16:53.173Z,26.30
2018-12-13T10:17:53.081Z,26.90
2018-12-13T10:18:53.078Z,26.50
2018-12-13T10:19:53.040Z,28.00
2018-12-13T10:22:03.394Z,24.60
2018-12-13T10:23:04.355Z,26.10
2018-12-13T10:24:04.344Z,29.30
2018-12-13T10:25:04.292Z,30.90
2018-12-13T10:26:04.290Z,29.80
2018-12-13T10:27:04.319Z,30.10
2018-12-13T10:28:04.278Z,29.30
2018-12-13T10:29:04.398Z,28.20
2018-12-13T10:30:04.480Z,27.80
2018-12-13T10:31:04.322Z,27.40
2018-12-13T10:32:05.061Z,25.10
2018-12-13T10:33:04.344Z,22.40
2018-12-13T10:34:04.212Z,23.60
2018-12-13T10:35:04.228Z,24.30
2018-12-13T10:36:04.187Z,25.90
2018-12-13T10:37:04.173Z,27.80
2018-12-13T10:38:04.190Z,27.20
2018-12-13T10:39:04.145Z,27.10
2018-12-13T10:40:04.142Z,26.90
2018-12-13T10:41:04.126Z,25.30
2018-12-13T10:42:04.108Z,23.70
2018-12-13T10:43:04.104Z,22.00
2018-12-13T10:44:04.183Z,23.10
2018-12-13T10:45:04.076Z,23.40
2018-12-13T10:46:04.064Z,22.30
2018-12-13T10:47:04.071Z,21.20
2018-12-13T10:48:04.047Z,22.30
2018-12-13T10:49:04.073Z,21.90
2018-12-13T10:50:04.504Z,23.00
2018-12-13T10:51:04.022Z,21.40
2018-12-13T10:52:04.003Z,21.80
2018-12-13T10:53:03.991Z,20.40
2018-12-13T10:54:03.999Z,20.10
2018-12-13T10:55:03.990Z,19.60
2018-12-13T10:56:05.078Z,19.10
2018-12-13T10:57:03.950Z,18.70
2018-12-13T10:58:03.935Z,17.80
2018-12-13T10:59:03.927Z,19.10
2018-12-13T11:00:04.060Z,18.70
2018-12-13T11:01:03.908Z,19.00
2018-12-13T11:02:03.893Z,18.60
2018-12-13T11:03:03.893Z,18.00
2018-12-13T11:04:03.878Z,18.40
2018-12-13T11:05:03.885Z,17.50
2018-12-13T11:06:03.854Z,16.00
2018-12-13T11:07:03.847Z,16.70
2018-12-13T11:08:03.856Z,17.60
2018-12-13T11:09:03.831Z,17.60
2018-12-13T11:10:03.846Z,17.10
2018-12-13T11:11:03.819Z,17.40
2018-12-13T11:12:03.785Z,17.50
2018-12-13T11:13:03.807Z,16.90
2018-12-13T11:14:03.773Z,17.30
2018-12-13T11:15:03.779Z,16.90
2018-12-13T11:16:03.754Z,16.40
2018-12-13T11:17:03.824Z,16.40
2018-12-13T11:18:03.718Z,16.40
2018-12-13T11:19:03.731Z,16.50
2018-12-13T11:20:03.737Z,17.20
2018-12-13T11:21:03.818Z,16.50
2018-12-13T11:22:03.692Z,17.00
2018-12-13T11:23:03.680Z,16.40
2018-12-13T11:24:03.669Z,17.00
2018-12-13T11:25:03.674Z,16.90
2018-12-13T11:26:03.651Z,16.40
2018-12-13T11:27:03.632Z,16.30
2018-12-13T11:28:03.625Z,17.20
2018-12-13T11:29:03.616Z,16.50
2018-12-13T11:30:03.648Z,16.30
2018-12-13T11:31:03.595Z,16.10
2018-12-13T11:32:03.568Z,16.90
2018-12-13T11:33:03.574Z,15.80
2018-12-13T11:34:03.563Z,15.50
2018-12-13T11:35:03.567Z,15.80
2018-12-13T11:36:03.548Z,16.00
2018-12-13T11:37:03.529Z,16.10
2018-12-13T11:38:03.531Z,15.80
2018-12-13T11:39:05.878Z,17.20
2018-12-13T11:40:03.512Z,16.60
2018-12-13T11:41:03.492Z,15.60
2018-12-13T11:42:03.475Z,15.80
2018-12-13T11:43:03.525Z,15.40
2018-12-13T11:44:03.445Z,15.50
2018-12-13T11:45:03.472Z,15.20
2018-12-13T11:46:03.511Z,15.70
2018-12-13T11:47:03.461Z,14.20
2018-12-13T11:48:03.414Z,14.20
2018-12-13T11:49:03.427Z,14.50
2018-12-13T11:50:03.403Z,14.30
2018-12-13T11:51:03.385Z,18.10
2018-12-13T11:52:03.392Z,16.30
2018-12-13T11:53:03.350Z,15.90
2018-12-13T11:54:03.333Z,17.80
2018-12-13T11:55:03.355Z,16.70
2018-12-13T11:56:03.420Z,16.50
2018-12-13T11:57:03.323Z,15.90
2018-12-13T11:58:03.305Z,15.70
2018-12-13T11:59:03.328Z,14.50
2018-12-13T12:00:03.354Z,14.10
2018-12-13T12:01:03.279Z,15.90
2018-12-13T12:02:03.265Z,15.50
2018-12-13T12:03:03.296Z,14.90
2018-12-13T12:04:03.388Z,15.10
2018-12-13T12:05:03.227Z,15.30
2018-12-13T12:06:03.237Z,16.40
2018-12-13T12:07:03.203Z,14.30
2018-12-13T12:08:03.200Z,13.30
2018-12-13T12:09:03.232Z,13.70
2018-12-13T12:10:03.980Z,13.70
2018-12-13T12:11:03.188Z,14.00
2018-12-13T12:12:03.489Z,14.50
2018-12-13T12:13:03.137Z,12.20
2018-12-13T12:14:03.121Z,13.30
2018-12-13T12:15:03.367Z,13.90
2018-12-13T12:16:03.116Z,14.00
2018-12-13T12:17:03.107Z,13.90
2018-12-13T12:18:03.112Z,13.90
2018-12-13T12:19:03.087Z,12.90
2018-12-13T12:20:03.313Z,13.80
2018-12-13T12:21:03.073Z,12.50
2018-12-13T12:23:23.195Z,11.70
2018-12-13T12:24:24.155Z,12.00
2018-12-13T12:25:24.151Z,12.20
2018-12-13T12:26:25.001Z,11.90
2018-12-13T12:27:24.121Z,12.60
2018-12-13T12:28:24.123Z,12.10
2018-12-13T12:29:24.100Z,11.60
2018-12-13T12:30:24.103Z,12.10
2018-12-13T12:31:24.110Z,11.80
2018-12-13T12:32:24.082Z,12.20
2018-12-13T12:33:24.067Z,11.90
2018-12-13T12:34:25.005Z,12.70
2018-12-13T12:35:24.057Z,12.80
2018-12-13T12:36:24.038Z,12.30
2018-12-13T12:37:24.017Z,11.90
2018-12-13T12:38:24.007Z,11.60
2018-12-13T12:39:24.013Z,10.80
2018-12-13T12:40:23.982Z,10.30
2018-12-13T12:41:23.995Z,12.70
2018-12-13T12:42:24.118Z,13.40
2018-12-13T12:43:23.964Z,12.90
2018-12-13T12:44:23.971Z,10.90
2018-12-13T12:45:23.934Z,11.10
2018-12-13T12:46:23.920Z,12.10
2018-12-13T12:47:23.935Z,11.70
2018-12-13T12:48:23.911Z,12.00
2018-12-13T12:49:25.271Z,10.60
2018-12-13T12:50:23.874Z,11.00
2018-12-13T12:51:23.866Z,10.10
2018-12-13T12:52:23.888Z,10.60
2018-12-13T12:53:23.857Z,10.80
2018-12-13T12:54:23.844Z,10.10
2018-12-13T12:55:23.824Z,10.50
2018-12-13T12:56:23.807Z,11.20
2018-12-13T12:57:23.827Z,10.90
2018-12-13T12:58:23.804Z,11.00
2018-12-13T12:59:23.790Z,12.60
2018-12-13T13:00:23.781Z,13.10